createdAt,value
2023-02-09T00:01:31.792Z,84.25
2023-02-09T00:04:00.927Z,84.16
2023-02-09T00:06:30.262Z,84.15
2023-02-09T00:08:59.367Z,84.00
2023-02-09T00:11:48.835Z,84.27
2023-02-09T00:14:21.601Z,84.20
2023-02-09T00:16:52.436Z,84.02
2023-02-09T00:19:21.918Z,84.29
2023-02-09T00:21:49.760Z,84.45
2023-02-09T00:24:18.308Z,84.47
2023-02-09T00:26:47.086Z,84.29
2023-02-09T00:29:16.712Z,84.12
2023-02-09T00:31:44.562Z,84.08
2023-02-09T00:34:12.811Z,84.59
2023-02-09T00:36:40.750Z,84.96
2023-02-09T00:39:08.819Z,85.18
2023-02-09T00:41:55.925Z,85.31
2023-02-09T00:44:23.944Z,85.47
2023-02-09T00:46:52.327Z,85.50
2023-02-09T00:49:20.494Z,85.72
2023-02-09T00:51:48.486Z,85.55
2023-02-09T00:54:17.054Z,85.57
2023-02-09T00:56:46.605Z,85.63
2023-02-09T00:59:14.500Z,85.39
2023-02-09T01:01:42.557Z,85.48
2023-02-09T01:04:10.489Z,85.60
2023-02-09T01:06:38.403Z,85.58
2023-02-09T01:09:06.307Z,85.63
2023-02-09T01:11:34.151Z,85.85
2023-02-09T01:14:04.351Z,85.97
2023-02-09T01:16:32.659Z,85.83
2023-02-09T01:19:02.696Z,85.76
2023-02-09T01:21:31.834Z,85.75
2023-02-09T01:24:00.003Z,85.63
2023-02-09T01:26:28.014Z,85.51
2023-02-09T01:28:56.121Z,85.65
2023-02-09T01:31:30.776Z,85.66
2023-02-09T01:34:01.436Z,85.82
2023-02-09T01:36:31.518Z,85.70
2023-02-09T01:39:01.923Z,85.72
2023-02-09T01:41:31.830Z,85.76
2023-02-09T01:44:06.954Z,85.71
2023-02-09T01:46:37.434Z,85.58
2023-02-09T01:49:15.462Z,85.53
2023-02-09T01:51:49.218Z,85.58
2023-02-09T01:54:23.737Z,85.48
2023-02-09T01:57:00.239Z,85.61
2023-02-09T01:59:29.678Z,85.09
2023-02-09T02:01:57.488Z,85.04
2023-02-09T02:04:25.694Z,84.75
2023-02-09T02:07:01.130Z,84.72
2023-02-09T02:09:29.744Z,84.66
2023-02-09T02:16:23.281Z,85.18
2023-02-09T02:19:01.990Z,85.65
2023-02-09T02:22:03.585Z,85.69
2023-02-09T02:24:43.197Z,85.88
2023-02-09T02:27:43.593Z,86.36
2023-02-09T02:30:17.364Z,86.42
2023-02-09T02:33:17.635Z,86.49
2023-02-09T02:35:55.426Z,86.57
2023-02-09T02:38:56.819Z,86.82
2023-02-09T02:42:07.585Z,87.14
2023-02-09T02:44:43.974Z,87.43
2023-02-09T02:47:18.290Z,87.75
2023-02-09T02:49:57.308Z,87.78
2023-02-09T02:52:25.170Z,87.81
2023-02-09T02:55:22.461Z,88.07
2023-02-09T02:57:55.600Z,87.92
2023-02-09T03:00:31.700Z,88.20
2023-02-09T03:03:09.042Z,88.08
2023-02-09T03:05:37.966Z,87.91
2023-02-09T03:08:05.972Z,87.71
2023-02-09T03:10:40.562Z,87.57
2023-02-09T03:13:48.919Z,87.51
2023-02-09T03:16:42.452Z,87.51
2023-02-09T03:19:31.760Z,87.60
2023-02-09T03:22:26.605Z,87.54
2023-02-09T03:25:00.163Z,87.50
2023-02-09T03:27:37.438Z,87.37
2023-02-09T03:30:09.897Z,87.36
2023-02-09T03:32:42.065Z,87.22
2023-02-09T03:35:15.976Z,87.18
2023-02-09T03:37:44.001Z,87.10
2023-02-09T03:40:12.234Z,86.86
2023-02-09T03:42:40.201Z,86.77
2023-02-09T03:45:08.726Z,86.70
2023-02-09T03:47:36.605Z,86.61
2023-02-09T03:50:06.813Z,86.56
2023-02-09T03:52:34.619Z,86.46
2023-02-09T03:55:03.338Z,86.10
2023-02-09T03:57:31.146Z,86.28
2023-02-09T03:59:58.971Z,86.11
2023-02-09T04:02:26.799Z,86.14
2023-02-09T04:04:54.593Z,85.84
2023-02-09T04:07:22.578Z,85.86
2023-02-09T04:09:50.465Z,85.79
2023-02-09T04:12:18.373Z,85.88
2023-02-09T04:14:46.191Z,85.92
2023-02-09T04:17:14.094Z,85.81
2023-02-09T04:19:42.059Z,85.85
2023-02-09T04:22:09.945Z,86.32
2023-02-09T04:24:37.807Z,86.82
2023-02-09T04:27:05.636Z,87.01
2023-02-09T04:29:33.524Z,87.06
2023-02-09T04:32:01.643Z,87.11
2023-02-09T04:34:29.408Z,87.11
2023-02-09T04:36:57.234Z,87.11
2023-02-09T04:39:24.993Z,87.13
2023-02-09T04:41:52.733Z,87.04
2023-02-09T04:44:20.541Z,86.90
2023-02-09T04:46:48.408Z,87.07
2023-02-09T04:49:16.571Z,86.99
2023-02-09T04:51:44.403Z,86.96
2023-02-09T04:54:12.299Z,87.11
2023-02-09T04:56:40.147Z,87.08
2023-02-09T04:59:28.435Z,87.12
2023-02-09T05:01:56.363Z,87.08
2023-02-09T05:04:24.312Z,87.04
2023-02-09T05:06:52.104Z,87.02
2023-02-09T05:09:19.885Z,87.00
2023-02-09T05:11:47.783Z,87.14
2023-02-09T05:14:15.602Z,86.99
2023-02-09T05:16:43.480Z,86.92
2023-02-09T05:19:11.767Z,86.91
2023-02-09T05:21:39.680Z,86.80
2023-02-09T05:24:08.070Z,86.79
2023-02-09T05:26:36.012Z,86.70
2023-02-09T05:29:04.512Z,86.49
2023-02-09T05:31:32.406Z,86.33
2023-02-09T05:34:01.103Z,86.22
2023-02-09T05:36:29.342Z,86.07
2023-02-09T05:38:57.199Z,85.94
2023-02-09T05:41:43.820Z,85.86
2023-02-09T05:44:11.696Z,85.69
2023-02-09T05:46:39.524Z,85.71
2023-02-09T05:49:07.433Z,85.48
2023-02-09T05:51:35.849Z,85.61
2023-02-09T05:54:03.742Z,85.48
2023-02-09T05:56:31.615Z,85.02
2023-02-09T05:58:59.442Z,85.04
2023-02-09T06:01:27.304Z,84.92
2023-02-09T06:03:55.126Z,84.93
2023-02-09T06:06:23.036Z,85.12
2023-02-09T06:08:51.157Z,85.24
2023-02-09T06:11:19.450Z,85.13
2023-02-09T06:13:47.481Z,85.26
2023-02-09T06:16:15.369Z,85.25
2023-02-09T06:18:43.226Z,85.03
2023-02-09T06:21:14.344Z,85.08
2023-02-09T06:23:42.225Z,84.82
2023-02-09T06:26:13.670Z,84.90
2023-02-09T06:28:41.939Z,84.91
2023-02-09T06:31:10.682Z,85.01
2023-02-09T06:33:39.510Z,85.24
2023-02-09T06:36:08.816Z,85.24
2023-02-09T06:38:38.238Z,85.04
2023-02-09T06:41:06.644Z,85.32
2023-02-09T06:43:34.904Z,85.15
2023-02-09T06:46:08.697Z,85.08
2023-02-09T06:48:38.168Z,85.02
2023-02-09T06:51:15.383Z,85.15
2023-02-09T06:53:44.476Z,85.06
2023-02-09T06:56:13.860Z,85.01
2023-02-09T06:58:42.352Z,84.80
2023-02-09T07:01:15.768Z,84.76
2023-02-09T07:03:44.608Z,84.46
2023-02-09T07:06:17.650Z,84.15
2023-02-09T07:08:46.334Z,84.11
2023-02-09T07:11:18.253Z,84.04
2023-02-09T07:13:46.825Z,83.72
2023-02-09T07:16:16.007Z,83.52
2023-02-09T07:18:43.980Z,83.73
2023-02-09T07:21:20.460Z,83.52
2023-02-09T07:23:50.857Z,83.65
2023-02-09T07:26:18.835Z,83.63
2023-02-09T07:28:46.890Z,83.69
2023-02-09T07:31:17.087Z,83.25
2023-02-09T07:33:46.391Z,83.10
2023-02-09T07:36:17.091Z,82.96
2023-02-09T07:38:45.601Z,83.02
2023-02-09T07:41:17.706Z,83.21
2023-02-09T07:43:46.633Z,83.29
2023-02-09T07:46:17.868Z,83.17
2023-02-09T07:48:45.962Z,82.97
2023-02-09T07:51:25.136Z,82.91
2023-02-09T07:53:53.724Z,83.10
2023-02-09T07:56:25.498Z,83.15
2023-02-09T07:58:55.120Z,83.02
2023-02-09T08:01:24.273Z,83.07
2023-02-09T08:03:52.358Z,83.12
2023-02-09T08:06:42.060Z,83.11
2023-02-09T08:09:14.044Z,83.29
2023-02-09T08:11:57.695Z,83.40
2023-02-09T08:14:35.746Z,83.43
2023-02-09T08:17:24.129Z,83.39
2023-02-09T08:20:08.403Z,83.40
2023-02-09T08:22:45.226Z,83.14
2023-02-09T08:25:17.843Z,83.11
2023-02-09T08:27:47.055Z,82.99
2023-02-09T08:30:17.547Z,83.29
2023-02-09T08:32:45.655Z,83.62
2023-02-09T08:35:13.986Z,83.88
2023-02-09T08:37:41.804Z,83.72
2023-02-09T08:40:10.349Z,83.48
2023-02-09T08:42:38.206Z,83.34
2023-02-09T08:45:06.561Z,83.37
2023-02-09T08:47:34.356Z,83.36
2023-02-09T08:50:02.878Z,83.06
2023-02-09T08:52:30.693Z,83.17
2023-02-09T08:54:58.486Z,83.14
2023-02-09T08:57:41.761Z,83.08
2023-02-09T09:00:12.450Z,83.06
2023-02-09T09:02:40.709Z,83.12
2023-02-09T09:05:09.179Z,83.57
2023-02-09T09:07:37.141Z,83.92
2023-02-09T09:10:08.809Z,84.05
2023-02-09T09:12:37.244Z,84.39
2023-02-09T09:15:06.167Z,84.43
2023-02-09T09:17:34.028Z,84.97
2023-02-09T09:20:02.119Z,85.18
2023-02-09T09:22:30.132Z,85.76
2023-02-09T09:24:57.973Z,85.71
2023-02-09T09:27:27.027Z,86.00
2023-02-09T09:29:56.072Z,85.65
2023-02-09T09:32:25.010Z,85.77
2023-02-09T09:34:55.554Z,85.70
2023-02-09T09:37:25.353Z,85.34
2023-02-09T09:39:53.442Z,85.09
2023-02-09T09:42:43.177Z,84.86
2023-02-09T09:45:19.685Z,84.89
2023-02-09T09:47:48.109Z,84.65
2023-02-09T09:50:24.934Z,84.61
2023-02-09T09:53:31.671Z,84.47
2023-02-09T09:56:06.708Z,84.32
2023-02-09T09:58:41.014Z,84.25
2023-02-09T10:01:21.261Z,83.95
2023-02-09T10:03:49.664Z,83.78
2023-02-09T10:06:22.219Z,83.81
2023-02-09T10:09:03.313Z,83.63
2023-02-09T10:11:45.383Z,83.56
2023-02-09T10:14:13.689Z,83.42
2023-02-09T10:16:44.667Z,83.33
2023-02-09T10:19:29.280Z,83.25
2023-02-09T10:21:57.236Z,83.16
2023-02-09T10:24:32.888Z,83.14
2023-02-09T10:27:20.910Z,83.01
2023-02-09T10:29:48.758Z,83.04
2023-02-09T10:32:20.621Z,82.67
2023-02-09T10:34:52.680Z,82.38
2023-02-09T10:37:22.199Z,81.97
2023-02-09T10:40:37.452Z,81.98
2023-02-09T10:43:37.116Z,81.91
2023-02-09T10:46:18.819Z,81.93
2023-02-09T10:48:47.645Z,81.81
2023-02-09T10:51:29.037Z,81.03
2023-02-09T10:54:03.530Z,80.75
2023-02-09T10:56:50.333Z,80.38
2023-02-09T10:59:24.670Z,79.68
2023-02-09T11:01:59.562Z,79.22
2023-02-09T11:04:39.156Z,78.10
2023-02-09T11:07:21.392Z,78.52
2023-02-09T11:09:52.024Z,78.25
2023-02-09T11:12:22.700Z,76.97
2023-02-09T11:14:50.620Z,76.85
2023-02-09T11:17:45.225Z,76.94
2023-02-09T11:20:30.814Z,76.69
2023-02-09T11:23:42.342Z,75.98
2023-02-09T11:26:44.361Z,75.71
2023-02-09T11:29:27.762Z,74.83
2023-02-09T11:32:23.800Z,74.53
2023-02-09T11:35:16.297Z,75.24
2023-02-09T11:37:53.321Z,74.44
2023-02-09T11:40:39.785Z,73.46
2023-02-09T11:43:18.942Z,73.24
2023-02-09T11:45:50.639Z,72.03
2023-02-09T11:48:29.220Z,72.20
2023-02-09T11:51:15.267Z,71.43
2023-02-09T11:54:13.240Z,71.05
2023-02-09T11:56:59.399Z,70.72
2023-02-09T11:59:38.717Z,69.49
2023-02-09T12:02:43.446Z,68.90
2023-02-09T12:05:17.521Z,67.79
2023-02-09T12:08:03.585Z,67.26
2023-02-09T12:11:49.169Z,65.94
2023-02-09T12:14:26.365Z,65.83
2023-02-09T12:17:07.585Z,64.44
2023-02-09T12:19:41.691Z,63.32
2023-02-09T12:22:34.406Z,62.71
2023-02-09T12:25:17.484Z,63.35
2023-02-09T12:28:14.787Z,63.65
2023-02-09T12:30:42.870Z,64.19
2023-02-09T12:33:34.090Z,64.90
2023-02-09T12:36:11.270Z,63.22
2023-02-09T12:38:56.194Z,63.03
2023-02-09T12:41:35.197Z,63.80
2023-02-09T12:44:09.043Z,63.01
2023-02-09T12:46:54.668Z,62.12
2023-02-09T12:49:33.517Z,61.26
2023-02-09T12:52:01.325Z,61.39
2023-02-09T12:54:44.353Z,61.43
2023-02-09T12:57:15.321Z,60.46
2023-02-09T13:00:01.273Z,59.96
2023-02-09T13:02:48.450Z,61.11
2023-02-09T13:05:39.287Z,60.57
2023-02-09T13:08:13.456Z,60.83
2023-02-09T13:11:25.173Z,59.23
2023-02-09T13:13:58.503Z,58.18
2023-02-09T13:16:45.294Z,57.31
2023-02-09T13:19:15.699Z,56.61
2023-02-09T13:22:18.901Z,57.05
2023-02-09T13:24:59.832Z,57.25
2023-02-09T13:27:30.119Z,57.68
2023-02-09T13:29:59.636Z,56.25
2023-02-09T13:32:58.556Z,56.70
2023-02-09T13:35:34.430Z,55.79
2023-02-09T13:38:16.028Z,57.15
2023-02-09T13:40:49.173Z,57.14
2023-02-09T13:43:31.788Z,57.30
2023-02-09T13:46:02.277Z,57.27
2023-02-09T13:48:33.364Z,58.90
2023-02-09T13:51:14.439Z,57.94
2023-02-09T13:53:55.654Z,58.27
2023-02-09T13:56:23.915Z,58.06
2023-02-09T13:58:53.375Z,57.99
2023-02-09T14:01:45.880Z,58.22
2023-02-09T14:04:32.423Z,57.64
2023-02-09T14:07:11.603Z,58.52
2023-02-09T14:09:56.629Z,59.22
2023-02-09T14:12:52.191Z,58.54
2023-02-09T14:15:46.295Z,59.15
2023-02-09T14:18:51.587Z,59.50
2023-02-09T14:21:25.403Z,60.08
2023-02-09T14:23:55.883Z,58.85
2023-02-09T14:26:26.696Z,59.13
2023-02-09T14:29:19.140Z,58.44
2023-02-09T14:32:33.473Z,58.60
2023-02-09T14:35:23.548Z,59.22
2023-02-09T14:37:54.389Z,58.81
2023-02-09T14:40:28.195Z,58.49
2023-02-09T14:43:25.101Z,59.18
2023-02-09T14:46:01.678Z,59.32
2023-02-09T14:48:31.364Z,59.43
2023-02-09T14:51:14.661Z,60.31
2023-02-09T14:53:44.013Z,59.87
2023-02-09T14:56:35.405Z,60.03
2023-02-09T14:59:05.440Z,59.97
2023-02-09T15:01:33.347Z,60.38
2023-02-09T15:04:01.371Z,60.39
2023-02-09T15:06:33.132Z,59.97
2023-02-09T15:09:07.466Z,60.42
2023-02-09T15:12:10.826Z,60.96
2023-02-09T15:14:45.523Z,61.05
2023-02-09T15:17:25.507Z,60.36
2023-02-09T15:19:54.828Z,60.58
2023-02-09T15:22:24.435Z,60.62
2023-02-09T15:24:54.583Z,61.12
2023-02-09T15:27:41.494Z,61.07
2023-02-09T15:30:26.389Z,61.66
2023-02-09T15:32:54.323Z,61.93
2023-02-09T15:35:26.231Z,61.98
2023-02-09T15:38:02.271Z,62.29
2023-02-09T15:40:58.266Z,61.76
2023-02-09T15:43:45.572Z,62.66
2023-02-09T15:46:33.042Z,62.27
2023-02-09T15:49:01.073Z,62.51
2023-02-09T15:51:34.067Z,62.84
2023-02-09T15:54:27.870Z,63.00
2023-02-09T15:56:55.759Z,63.07
2023-02-09T15:59:24.211Z,63.37
2023-02-09T16:01:52.428Z,63.53
2023-02-09T16:04:20.272Z,63.49
2023-02-09T16:06:54.739Z,63.91
2023-02-09T16:09:28.479Z,64.07
2023-02-09T16:11:56.984Z,64.19
2023-02-09T16:14:26.994Z,64.42
2023-02-09T16:16:54.976Z,64.22
2023-02-09T16:19:22.889Z,64.64
2023-02-09T16:21:56.471Z,64.52
2023-02-09T16:24:35.022Z,64.41
2023-02-09T16:27:14.611Z,64.84
2023-02-09T16:29:42.743Z,64.98
2023-02-09T16:32:17.693Z,64.79
2023-02-09T16:34:46.153Z,65.17
2023-02-09T16:37:24.760Z,65.12
2023-02-09T16:39:53.971Z,65.54
2023-02-09T16:42:21.826Z,65.85
2023-02-09T16:44:49.615Z,66.04
2023-02-09T16:47:26.745Z,66.16
2023-02-09T16:50:22.617Z,66.43
2023-02-09T16:52:58.313Z,66.74
2023-02-09T16:55:35.874Z,66.93
2023-02-09T16:58:05.728Z,67.16
2023-02-09T17:00:38.404Z,67.42
2023-02-09T17:03:16.990Z,67.48
2023-02-09T17:05:49.554Z,67.66
2023-02-09T17:08:28.237Z,67.92
2023-02-09T17:10:56.544Z,68.10
2023-02-09T17:13:24.994Z,68.38
2023-02-09T17:16:00.043Z,68.80
2023-02-09T17:18:38.772Z,69.11
2023-02-09T17:21:23.713Z,69.52
2023-02-09T17:23:52.609Z,69.91
2023-02-09T17:26:21.274Z,70.23
2023-02-09T17:28:49.737Z,70.35
2023-02-09T17:31:25.617Z,70.60
2023-02-09T17:33:57.650Z,71.08
2023-02-09T17:36:28.268Z,71.15
2023-02-09T17:38:58.857Z,71.13
2023-02-09T17:41:43.179Z,71.57
2023-02-09T17:44:44.618Z,71.87
2023-02-09T17:47:19.837Z,72.19
2023-02-09T17:49:47.897Z,72.48
2023-02-09T17:52:18.173Z,72.74
2023-02-09T17:54:47.293Z,72.87
2023-02-09T17:57:17.181Z,73.14
2023-02-09T17:59:46.807Z,73.41
2023-02-09T18:02:18.300Z,73.60
2023-02-09T18:04:46.319Z,73.74
2023-02-09T18:07:20.130Z,73.79
2023-02-09T18:09:48.304Z,73.89
2023-02-09T18:12:21.705Z,74.31
2023-02-09T18:14:50.054Z,74.48
2023-02-09T18:17:18.580Z,74.74
2023-02-09T18:19:46.366Z,74.85
2023-02-09T18:22:17.390Z,74.87
2023-02-09T18:24:45.938Z,74.95
2023-02-09T18:27:20.349Z,75.01
2023-02-09T18:29:48.223Z,75.14
2023-02-09T18:32:17.449Z,75.44
2023-02-09T18:34:45.320Z,75.67
2023-02-09T18:37:16.011Z,75.81
2023-02-09T18:39:46.535Z,76.05
2023-02-09T18:42:16.436Z,76.11
2023-02-09T18:44:44.576Z,75.98
2023-02-09T18:47:12.688Z,76.06
2023-02-09T18:49:41.369Z,76.01
2023-02-09T18:52:10.275Z,76.39
2023-02-09T18:54:38.160Z,76.51
2023-02-09T18:57:05.979Z,76.50
2023-02-09T18:59:34.113Z,76.86
2023-02-09T19:02:02.748Z,77.10
2023-02-09T19:04:30.653Z,77.03
2023-02-09T19:06:58.984Z,77.04
2023-02-09T19:09:27.011Z,77.29
2023-02-09T19:11:55.176Z,77.22
2023-02-09T19:14:38.468Z,77.27
2023-02-09T19:17:12.026Z,77.59
2023-02-09T19:19:39.961Z,77.88
2023-02-09T19:22:09.054Z,77.93
2023-02-09T19:24:37.015Z,77.59
2023-02-09T19:27:09.252Z,77.43
2023-02-09T19:29:41.301Z,77.83
2023-02-09T19:32:11.672Z,78.04
2023-02-09T19:34:41.028Z,78.26
2023-02-09T19:37:10.990Z,78.01
2023-02-09T19:39:41.064Z,77.85
2023-02-09T19:42:08.976Z,77.90
2023-02-09T19:44:37.066Z,78.09
2023-02-09T19:47:05.069Z,78.27
2023-02-09T19:49:34.299Z,78.22
2023-02-09T19:52:02.441Z,77.58
2023-02-09T19:54:30.351Z,77.99
2023-02-09T19:56:58.470Z,78.29
2023-02-09T19:59:26.344Z,78.31
2023-02-09T20:01:54.388Z,78.56
2023-02-09T20:04:22.603Z,78.69
2023-02-09T20:06:50.550Z,78.65
2023-02-09T20:09:18.359Z,78.53
2023-02-09T20:11:46.223Z,79.06
2023-02-09T20:14:14.380Z,79.31
2023-02-09T20:16:42.419Z,79.56
2023-02-09T20:19:10.546Z,79.43
2023-02-09T20:21:40.381Z,79.49
2023-02-09T20:24:13.369Z,79.44
2023-02-09T20:26:44.392Z,79.37
2023-02-09T20:29:13.573Z,79.48
2023-02-09T20:31:41.766Z,79.52
2023-02-09T20:34:13.487Z,79.83
2023-02-09T20:36:45.064Z,79.62
2023-02-09T20:39:16.210Z,79.43
2023-02-09T20:42:05.526Z,79.68
2023-02-09T20:44:53.317Z,80.10
2023-02-09T20:47:21.361Z,80.17
2023-02-09T20:49:49.545Z,80.25
2023-02-09T20:52:18.032Z,80.24
2023-02-09T20:54:45.823Z,80.07
2023-02-09T20:57:13.674Z,80.18
2023-02-09T20:59:41.568Z,80.22
2023-02-09T21:02:15.149Z,80.51
2023-02-09T21:04:43.125Z,80.59
2023-02-09T21:07:11.393Z,80.53
2023-02-09T21:09:39.536Z,80.13
2023-02-09T21:12:07.544Z,80.16
2023-02-09T21:14:42.118Z,80.35
2023-02-09T21:17:11.380Z,80.65
2023-02-09T21:19:39.296Z,80.98
2023-02-09T21:22:08.111Z,80.83
2023-02-09T21:24:39.966Z,80.47
2023-02-09T21:27:09.067Z,80.33
2023-02-09T21:29:37.171Z,80.53
2023-02-09T21:32:07.969Z,80.59
2023-02-09T21:34:35.968Z,80.71
2023-02-09T21:37:03.976Z,80.48
2023-02-09T21:39:31.810Z,80.49
2023-02-09T21:42:18.147Z,80.49
2023-02-09T21:44:46.087Z,80.50
2023-02-09T21:47:14.123Z,80.74
2023-02-09T21:49:41.981Z,80.42
2023-02-09T21:52:09.817Z,80.41
2023-02-09T21:54:40.159Z,80.38
2023-02-09T21:57:08.122Z,80.66
2023-02-09T21:59:36.018Z,80.74
2023-02-09T22:02:04.217Z,81.02
2023-02-09T22:04:32.203Z,80.51
2023-02-09T22:07:00.353Z,80.51
2023-02-09T22:09:28.901Z,80.80
2023-02-09T22:11:56.839Z,80.54
2023-02-09T22:14:24.751Z,80.45
2023-02-09T22:16:52.624Z,80.36
2023-02-09T22:19:20.665Z,80.53
2023-02-09T22:21:48.569Z,80.49
2023-02-09T22:24:19.186Z,80.85
2023-02-09T22:26:47.202Z,80.70
2023-02-09T22:29:16.975Z,80.94
2023-02-09T22:31:45.405Z,80.71
2023-02-09T22:34:13.966Z,80.29
2023-02-09T22:36:41.868Z,80.55
2023-02-09T22:39:10.154Z,80.72
2023-02-09T22:41:38.041Z,80.65
2023-02-09T22:44:10.756Z,80.88
2023-02-09T22:46:41.643Z,80.82
2023-02-09T22:49:19.179Z,80.87
2023-02-09T22:51:49.818Z,80.99
2023-02-09T22:54:20.328Z,80.85
2023-02-09T22:56:48.291Z,80.65
2023-02-09T22:59:16.541Z,80.75
2023-02-09T23:01:44.855Z,80.58
2023-02-09T23:04:12.943Z,80.72
2023-02-09T23:06:42.725Z,81.01
2023-02-09T23:09:13.464Z,80.88
2023-02-09T23:11:42.004Z,81.08
2023-02-09T23:14:11.424Z,81.45
2023-02-09T23:16:42.250Z,80.95
2023-02-09T23:19:17.250Z,80.90
2023-02-09T23:21:51.588Z,80.80
2023-02-09T23:24:22.179Z,80.68
2023-02-09T23:26:50.882Z,80.81
2023-02-09T23:29:19.281Z,80.89
2023-02-09T23:31:48.132Z,80.95
2023-02-09T23:34:22.212Z,81.02
2023-02-09T23:36:50.238Z,81.00
2023-02-09T23:39:22.380Z,81.02
2023-02-09T23:41:50.303Z,80.92
2023-02-09T23:44:19.545Z,80.90
2023-02-09T23:46:47.619Z,80.64
2023-02-09T23:49:15.598Z,80.60
2023-02-09T23:51:45.075Z,80.72
2023-02-09T23:54:12.925Z,80.74
2023-02-09T23:56:41.149Z,80.56
2023-02-09T23:59:14.144Z,80.66
